sensor_id;sensor_type;location;lat;lon;timestamp;pressure;altitude;pressure_sealevel;temperature;humidity
61205;BME280;47068;55.780;37.520;2023-12-14T00:00:32;100617.72;;;-9.53;82.59
61205;BME280;47068;55.780;37.520;2023-12-14T00:02:57;100610.03;;;-9.54;81.46
61205;BME280;47068;55.780;37.520;2023-12-14T00:05:22;100616.78;;;-9.46;83.21
61205;BME280;47068;55.780;37.520;2023-12-14T00:07:48;100611.59;;;-9.41;82.32
61205;BME280;47068;55.780;37.520;2023-12-14T00:10:13;100615.84;;;-9.39;83.74
61205;BME280;47068;55.780;37.520;2023-12-14T00:12:38;100621.13;;;-9.48;82.17
61205;BME280;47068;55.780;37.520;2023-12-14T00:15:04;100611.69;;;-9.53;82.67
61205;BME280;47068;55.780;37.520;2023-12-14T00:17:30;100609.13;;;-9.52;81.61
61205;BME280;47068;55.780;37.520;2023-12-14T00:19:55;100606.59;;;-9.55;81.94
61205;BME280;47068;55.780;37.520;2023-12-14T00:22:20;100612.59;;;-9.54;82.57
61205;BME280;47068;55.780;37.520;2023-12-14T00:24:46;100618.63;;;-9.56;81.70
61205;BME280;47068;55.780;37.520;2023-12-14T00:27:11;100615.13;;;-9.51;81.97
61205;BME280;47068;55.780;37.520;2023-12-14T00:29:36;100613.25;;;-9.39;83.08
61205;BME280;47068;55.780;37.520;2023-12-14T00:32:02;100620.81;;;-9.21;84.94
61205;BME280;47068;55.780;37.520;2023-12-14T00:34:27;100609.47;;;-9.09;84.57
61205;BME280;47068;55.780;37.520;2023-12-14T00:36:53;100621.63;;;-9.19;82.31
61205;BME280;47068;55.780;37.520;2023-12-14T00:39:18;100609.72;;;-9.30;81.28
61205;BME280;47068;55.780;37.520;2023-12-14T00:41:43;100614.97;;;-9.36;80.34
61205;BME280;47068;55.780;37.520;2023-12-14T00:44:09;100615.91;;;-9.42;80.93
61205;BME280;47068;55.780;37.520;2023-12-14T00:46:34;100605.59;;;-9.42;82.88
61205;BME280;47068;55.780;37.520;2023-12-14T00:48:59;100614.97;;;-9.39;83.05
61205;BME280;47068;55.780;37.520;2023-12-14T00:51:25;100609.03;;;-9.43;82.35
61205;BME280;47068;55.780;37.520;2023-12-14T00:53:50;100620.03;;;-9.30;83.17
61205;BME280;47068;55.780;37.520;2023-12-14T00:56:16;100605.53;;;-9.37;81.18
61205;BME280;47068;55.780;37.520;2023-12-14T00:58:41;100490.50;;;-10.16;81.38
61205;BME280;47068;55.780;37.520;2023-12-14T01:01:06;100609.91;;;-9.47;81.51
61205;BME280;47068;55.780;37.520;2023-12-14T01:03:32;100601.31;;;-9.43;82.63
61205;BME280;47068;55.780;37.520;2023-12-14T01:05:57;100623.59;;;-9.40;81.88
61205;BME280;47068;55.780;37.520;2023-12-14T01:08:22;100613.31;;;-9.40;83.03
61205;BME280;47068;55.780;37.520;2023-12-14T01:10:48;100604.66;;;-9.35;82.50
61205;BME280;47068;55.780;37.520;2023-12-14T01:13:13;100594.28;;;-9.30;79.36
61205;BME280;47068;55.780;37.520;2023-12-14T01:15:38;100616.53;;;-9.23;81.12
61205;BME280;47068;55.780;37.520;2023-12-14T01:18:04;100605.25;;;-9.14;81.29
61205;BME280;47068;55.780;37.520;2023-12-14T01:20:29;100610.34;;;-9.08;81.93
61205;BME280;47068;55.780;37.520;2023-12-14T01:22:55;100604.41;;;-9.17;81.48
61205;BME280;47068;55.780;37.520;2023-12-14T01:25:20;100491.06;;;-9.88;82.25
61205;BME280;47068;55.780;37.520;2023-12-14T01:27:45;100621.53;;;-9.12;82.86
61205;BME280;47068;55.780;37.520;2023-12-14T01:30:11;100618.97;;;-9.12;82.06
61205;BME280;47068;55.780;37.520;2023-12-14T01:32:36;100616.44;;;-9.16;82.28
61205;BME280;47068;55.780;37.520;2023-12-14T01:35:02;100606.97;;;-9.13;81.68
61205;BME280;47068;55.780;37.520;2023-12-14T01:37:27;100612.06;;;-9.09;82.22
61205;BME280;47068;55.780;37.520;2023-12-14T01:39:53;100618.09;;;-9.11;81.76
61205;BME280;47068;55.780;37.520;2023-12-14T01:42:18;100608.72;;;-9.17;78.97
61205;BME280;47068;55.780;37.520;2023-12-14T01:44:43;100613.84;;;-9.14;81.12
61205;BME280;47068;55.780;37.520;2023-12-14T01:47:09;100619.72;;;-9.03;82.38
61205;BME280;47068;55.780;37.520;2023-12-14T01:49:34;100607.41;;;-8.84;83.00
61205;BME280;47068;55.780;37.520;2023-12-14T01:52:00;100613.53;;;-8.91;81.52
61205;BME280;47068;55.780;37.520;2023-12-14T01:54:25;100618.81;;;-8.99;80.10
61205;BME280;47068;55.780;37.520;2023-12-14T01:56:50;100622.38;;;-9.09;78.75
61205;BME280;47068;55.780;37.520;2023-12-14T01:59:16;100613.03;;;-9.19;79.03
61205;BME280;47068;55.780;37.520;2023-12-14T02:01:42;100610.56;;;-9.27;78.15
61205;BME280;47068;55.780;37.520;2023-12-14T02:04:08;100604.44;;;-9.18;80.55
61205;BME280;47068;55.780;37.520;2023-12-14T02:06:33;100594.97;;;-9.16;80.48
61205;BME280;47068;55.780;37.520;2023-12-14T02:08:59;100606.28;;;-9.29;79.47
61205;BME280;47068;55.780;37.520;2023-12-14T02:11:24;100610.63;;;-9.33;80.29
61205;BME280;47068;55.780;37.520;2023-12-14T02:13:49;100595.22;;;-9.37;79.52
61205;BME280;47068;55.780;37.520;2023-12-14T02:16:15;100611.59;;;-9.43;80.07
61205;BME280;47068;55.780;37.520;2023-12-14T02:18:40;100603.03;;;-9.45;79.78
61205;BME280;47068;55.780;37.520;2023-12-14T02:21:06;100611.63;;;-9.46;80.49
61205;BME280;47068;55.780;37.520;2023-12-14T02:23:31;100603.03;;;-9.45;80.83
61205;BME280;47068;55.780;37.520;2023-12-14T02:25:56;100608.09;;;-9.39;81.12
61205;BME280;47068;55.780;37.520;2023-12-14T02:28:22;100602.97;;;-9.39;80.21
61205;BME280;47068;55.780;37.520;2023-12-14T02:30:47;100602.88;;;-9.33;81.68
61205;BME280;47068;55.780;37.520;2023-12-14T02:33:12;100608.88;;;-9.31;81.09
61205;BME280;47068;55.780;37.520;2023-12-14T02:35:38;100602.88;;;-9.33;81.21
61205;BME280;47068;55.780;37.520;2023-12-14T02:38:03;100614.03;;;-9.31;81.75
61205;BME280;47068;55.780;37.520;2023-12-14T02:40:28;100611.44;;;-9.29;82.12
61205;BME280;47068;55.780;37.520;2023-12-14T02:42:54;100606.22;;;-9.25;82.21
61205;BME280;47068;55.780;37.520;2023-12-14T02:45:19;100601.13;;;-9.28;82.08
61205;BME280;47068;55.780;37.520;2023-12-14T02:47:44;100598.56;;;-9.29;81.83
61205;BME280;47068;55.780;37.520;2023-12-14T02:50:12;100604.47;;;-9.20;81.07
61205;BME280;47068;55.780;37.520;2023-12-14T02:52:38;100600.03;;;-9.11;82.64
61205;BME280;47068;55.780;37.520;2023-12-14T02:55:03;100610.25;;;-9.01;81.43
61205;BME280;47068;55.780;37.520;2023-12-14T02:57:29;100606.81;;;-9.01;80.11
61205;BME280;47068;55.780;37.520;2023-12-14T02:59:54;100607.69;;;-9.04;80.71
61205;BME280;47068;55.780;37.520;2023-12-14T03:02:19;100618.91;;;-9.06;79.95
61205;BME280;47068;55.780;37.520;2023-12-14T03:04:45;100603.53;;;-9.16;79.96
61205;BME280;47068;55.780;37.520;2023-12-14T03:07:10;100610.41;;;-9.13;80.95
61205;BME280;47068;55.780;37.520;2023-12-14T03:09:38;100600.19;;;-9.21;80.87
61205;BME280;47068;55.780;37.520;2023-12-14T03:12:06;100606.19;;;-9.22;81.96
61205;BME280;47068;55.780;37.520;2023-12-14T03:14:32;100620.72;;;-9.14;81.33
61205;BME280;47068;55.780;37.520;2023-12-14T03:16:58;100624.09;;;-9.12;81.30
61205;BME280;47068;55.780;37.520;2023-12-14T03:19:23;100606.91;;;-9.12;80.71
61205;BME280;47068;55.780;37.520;2023-12-14T03:21:48;100619.00;;;-9.14;81.91
61205;BME280;47068;55.780;37.520;2023-12-14T03:24:14;100613.00;;;-9.18;81.29
61205;BME280;47068;55.780;37.520;2023-12-14T03:26:39;100618.25;;;-9.24;79.18
61205;BME280;47068;55.780;37.520;2023-12-14T03:29:04;100607.16;;;-9.29;80.34
61205;BME280;47068;55.780;37.520;2023-12-14T03:31:30;100609.66;;;-9.24;79.55
61205;BME280;47068;55.780;37.520;2023-12-14T03:33:55;100591.63;;;-9.26;80.18
61205;BME280;47068;55.780;37.520;2023-12-14T03:36:20;100600.28;;;-9.28;80.97
61205;BME280;47068;55.780;37.520;2023-12-14T03:38:47;100619.06;;;-9.20;80.36
61205;BME280;47068;55.780;37.520;2023-12-14T03:41:13;100607.09;;;-9.24;81.10
61205;BME280;47068;55.780;37.520;2023-12-14T03:43:38;100601.19;;;-9.34;81.28
61205;BME280;47068;55.780;37.520;2023-12-14T03:46:03;100609.78;;;-9.35;81.82
61205;BME280;47068;55.780;37.520;2023-12-14T03:48:31;100609.72;;;-9.30;83.55
61205;BME280;47068;55.780;37.520;2023-12-14T03:50:56;100612.34;;;-9.33;83.12
61205;BME280;47068;55.780;37.520;2023-12-14T03:53:21;100607.22;;;-9.35;83.45
61205;BME280;47068;55.780;37.520;2023-12-14T03:55:47;100622.59;;;-9.29;83.02
61205;BME280;47068;55.780;37.520;2023-12-14T03:58:12;100610.59;;;-9.30;83.47
61205;BME280;47068;55.780;37.520;2023-12-14T04:00:37;100614.91;;;-9.33;82.90
61205;BME280;47068;55.780;37.520;2023-12-14T04:03:03;100614.00;;;-9.28;83.48
61205;BME280;47068;55.780;37.520;2023-12-14T04:05:28;100609.63;;;-9.20;81.23
61205;BME280;47068;55.780;37.520;2023-12-14T04:07:53;100604.50;;;-9.24;82.27
61205;BME280;47068;55.780;37.520;2023-12-14T04:10:19;100610.56;;;-9.27;81.99
61205;BME280;47068;55.780;37.520;2023-12-14T04:12:44;100608.94;;;-9.34;81.37
61205;BME280;47068;55.780;37.520;2023-12-14T04:15:09;100610.66;;;-9.36;80.08
61205;BME280;47068;55.780;37.520;2023-12-14T04:17:35;100599.50;;;-9.36;81.30
61205;BME280;47068;55.780;37.520;2023-12-14T04:20:01;100589.19;;;-9.35;80.97
61205;BME280;47068;55.780;37.520;2023-12-14T04:22:26;100589.13;;;-9.33;80.86
61205;BME280;47068;55.780;37.520;2023-12-14T04:24:52;100582.31;;;-9.36;80.00
61205;BME280;47068;55.780;37.520;2023-12-14T04:27:17;100602.00;;;-9.32;81.75
61205;BME280;47068;55.780;37.520;2023-12-14T04:29:43;100589.97;;;-9.28;81.43
61205;BME280;47068;55.780;37.520;2023-12-14T04:32:08;100597.69;;;-9.28;79.78
61205;BME280;47068;55.780;37.520;2023-12-14T04:34:34;100583.16;;;-9.34;80.02
61205;BME280;47068;55.780;37.520;2023-12-14T04:36:59;100598.72;;;-9.43;80.56
61205;BME280;47068;55.780;37.520;2023-12-14T04:39:24;100581.38;;;-9.29;81.97
61205;BME280;47068;55.780;37.520;2023-12-14T04:41:50;100587.22;;;-9.16;81.33
61205;BME280;47068;55.780;37.520;2023-12-14T04:44:15;100594.06;;;-9.13;83.04
61205;BME280;47068;55.780;37.520;2023-12-14T04:46:41;100586.44;;;-9.20;81.94
61205;BME280;47068;55.780;37.520;2023-12-14T04:49:06;100584.66;;;-9.18;82.51
61205;BME280;47068;55.780;37.520;2023-12-14T04:51:31;100589.03;;;-9.21;83.08
61205;BME280;47068;55.780;37.520;2023-12-14T04:53:57;100579.50;;;-9.18;82.34
61205;BME280;47068;55.780;37.520;2023-12-14T04:56:22;100582.94;;;-9.19;82.31
61205;BME280;47068;55.780;37.520;2023-12-14T04:58:48;100597.38;;;-9.04;83.10
61205;BME280;47068;55.780;37.520;2023-12-14T05:01:13;100588.75;;;-9.01;82.10
61205;BME280;47068;55.780;37.520;2023-12-14T05:03:39;100599.81;;;-8.93;82.66
61205;BME280;47068;55.780;37.520;2023-12-14T05:06:05;100596.22;;;-8.83;83.37
61205;BME280;47068;55.780;37.520;2023-12-14T05:08:30;100593.66;;;-8.85;82.89
61205;BME280;47068;55.780;37.520;2023-12-14T05:10:55;100591.16;;;-8.89;81.36
61205;BME280;47068;55.780;37.520;2023-12-14T05:13:21;100605.06;;;-8.99;81.05
61205;BME280;47068;55.780;37.520;2023-12-14T05:15:46;100604.25;;;-9.03;81.38
61205;BME280;47068;55.780;37.520;2023-12-14T05:18:11;100608.59;;;-9.08;81.12
61205;BME280;47068;55.780;37.520;2023-12-14T05:20:37;100603.53;;;-9.16;80.82
61205;BME280;47068;55.780;37.520;2023-12-14T05:23:02;100603.53;;;-9.16;80.18
61205;BME280;47068;55.780;37.520;2023-12-14T05:25:28;100615.47;;;-9.08;80.81
61205;BME280;47068;55.780;37.520;2023-12-14T05:27:53;100599.16;;;-9.09;80.11
61205;BME280;47068;55.780;37.520;2023-12-14T05:30:18;100609.31;;;-8.98;78.90
61205;BME280;47068;55.780;37.520;2023-12-14T05:32:44;100608.59;;;-9.06;77.81
61205;BME280;47068;55.780;37.520;2023-12-14T05:35:09;100606.03;;;-9.08;79.11
61205;BME280;47068;55.780;37.520;2023-12-14T05:37:35;100613.00;;;-9.18;78.58
61205;BME280;47068;55.780;37.520;2023-12-14T05:40:01;100615.59;;;-9.18;79.07
61205;BME280;47068;55.780;37.520;2023-12-14T05:42:26;100610.41;;;-9.14;78.75
61205;BME280;47068;55.780;37.520;2023-12-14T05:44:51;100601.66;;;-9.01;79.92
61205;BME280;47068;55.780;37.520;2023-12-14T05:47:17;100615.44;;;-9.05;79.02
61205;BME280;47068;55.780;37.520;2023-12-14T05:49:42;100603.38;;;-9.02;80.09
61205;BME280;47068;55.780;37.520;2023-12-14T05:52:08;100610.34;;;-9.10;80.13
61205;BME280;47068;55.780;37.520;2023-12-14T05:54:35;100606.81;;;-9.01;81.09
61205;BME280;47068;55.780;37.520;2023-12-14T05:57:00;100600.63;;;-8.90;79.92
61205;BME280;47068;55.780;37.520;2023-12-14T05:59:27;100604.16;;;-8.97;79.07
61205;BME280;47068;55.780;37.520;2023-12-14T06:01:56;100604.13;;;-8.95;77.71
61205;BME280;47068;55.780;37.520;2023-12-14T06:04:22;100599.16;;;-9.09;77.23
61205;BME280;47068;55.780;37.520;2023-12-14T06:06:47;100608.78;;;-9.22;77.80
61205;BME280;47068;55.780;37.520;2023-12-14T06:09:12;100608.81;;;-9.25;77.74
61205;BME280;47068;55.780;37.520;2023-12-14T06:11:38;100599.19;;;-9.12;78.49
61205;BME280;47068;55.780;37.520;2023-12-14T06:14:03;100600.03;;;-9.11;78.35
61205;BME280;47068;55.780;37.520;2023-12-14T06:16:28;100612.81;;;-8.99;78.73
61205;BME280;47068;55.780;37.520;2023-12-14T06:18:54;100611.78;;;-8.89;78.75
61205;BME280;47068;55.780;37.520;2023-12-14T06:21:19;100613.59;;;-8.94;78.84
61205;BME280;47068;55.780;37.520;2023-12-14T06:23:44;100613.63;;;-8.97;78.27
61205;BME280;47068;55.780;37.520;2023-12-14T06:26:09;100596.50;;;-9.01;78.40
61205;BME280;47068;55.780;37.520;2023-12-14T06:28:35;100600.03;;;-9.10;78.74
61205;BME280;47068;55.780;37.520;2023-12-14T06:31:00;100613.78;;;-9.09;78.81
61205;BME280;47068;55.780;37.520;2023-12-14T06:33:26;100613.69;;;-9.03;77.99
61205;BME280;47068;55.780;37.520;2023-12-14T06:35:51;100612.84;;;-9.04;77.07
61205;BME280;47068;55.780;37.520;2023-12-14T06:38:17;100615.50;;;-9.11;77.95
61205;BME280;47068;55.780;37.520;2023-12-14T06:40:42;100612.03;;;-9.07;78.23
61205;BME280;47068;55.780;37.520;2023-12-14T06:43:07;100614.56;;;-9.03;78.00
61205;BME280;47068;55.780;37.520;2023-12-14T06:45:33;100635.19;;;-9.03;77.69
61205;BME280;47068;55.780;37.520;2023-12-14T06:48:01;100620.59;;;-9.05;77.51
61205;BME280;47068;55.780;37.520;2023-12-14T06:50:26;100624.09;;;-9.12;77.08
61205;BME280;47068;55.780;37.520;2023-12-14T06:52:52;100626.63;;;-9.06;76.88
61205;BME280;47068;55.780;37.520;2023-12-14T06:55:17;100616.25;;;-9.02;76.63
61205;BME280;47068;55.780;37.520;2023-12-14T06:57:43;100611.91;;;-8.98;77.06
61205;BME280;47068;55.780;37.520;2023-12-14T07:00:09;100624.09;;;-9.09;76.27
61205;BME280;47068;55.780;37.520;2023-12-14T07:02:34;100629.31;;;-9.16;77.32
61205;BME280;47068;55.780;37.520;2023-12-14T07:05:00;100625.03;;;-9.15;77.17
61205;BME280;47068;55.780;37.520;2023-12-14T07:07:25;100616.38;;;-9.11;77.80
61205;BME280;47068;55.780;37.520;2023-12-14T07:09:50;100611.88;;;-8.97;76.92
61205;BME280;47068;55.780;37.520;2023-12-14T07:12:16;100616.16;;;-8.93;78.48
61205;BME280;47068;55.780;37.520;2023-12-14T07:14:41;100609.13;;;-8.83;78.39
61205;BME280;47068;55.780;37.520;2023-12-14T07:17:07;100612.53;;;-8.80;79.11
61205;BME280;47068;55.780;37.520;2023-12-14T07:19:32;100598.63;;;-8.69;77.83
61205;BME280;47068;55.780;37.520;2023-12-14T07:21:57;100621.97;;;-8.79;78.07
61205;BME280;47068;55.780;37.520;2023-12-14T07:24:22;100639.19;;;-8.81;76.97
61205;BME280;47068;55.780;37.520;2023-12-14T07:26:48;100623.00;;;-8.92;78.02
61205;BME280;47068;55.780;37.520;2023-12-14T07:29:14;100630.84;;;-8.99;77.96
61205;BME280;47068;55.780;37.520;2023-12-14T07:31:40;100648.91;;;-9.02;78.66
61205;BME280;47068;55.780;37.520;2023-12-14T07:34:05;100638.59;;;-9.02;78.29
61205;BME280;47068;55.780;37.520;2023-12-14T07:36:31;100648.13;;;-9.07;78.54
61205;BME280;47068;55.780;37.520;2023-12-14T07:38:56;100642.84;;;-8.98;77.65
61205;BME280;47068;55.780;37.520;2023-12-14T07:41:22;100636.03;;;-9.02;77.24
61205;BME280;47068;55.780;37.520;2023-12-14T07:43:54;100637.75;;;-9.04;78.24
61205;BME280;47068;55.780;37.520;2023-12-14T07:46:19;100641.16;;;-8.99;77.89
61205;BME280;47068;55.780;37.520;2023-12-14T07:48:45;100648.00;;;-8.98;77.90
61205;BME280;47068;55.780;37.520;2023-12-14T07:51:10;100640.25;;;-8.98;77.21
61205;BME280;47068;55.780;37.520;2023-12-14T07:53:35;100646.31;;;-8.99;77.69
61205;BME280;47068;55.780;37.520;2023-12-14T07:56:02;100661.72;;;-8.96;76.93
61205;BME280;47068;55.780;37.520;2023-12-14T07:58:27;100647.94;;;-8.92;77.58
61205;BME280;47068;55.780;37.520;2023-12-14T08:00:53;100654.75;;;-8.88;77.08
61205;BME280;47068;55.780;37.520;2023-12-14T08:03:18;100652.13;;;-8.84;75.60
61205;BME280;47068;55.780;37.520;2023-12-14T08:05:43;100664.19;;;-8.86;77.20
61205;BME280;47068;55.780;37.520;2023-12-14T08:08:09;100652.09;;;-8.81;78.16
61205;BME280;47068;55.780;37.520;2023-12-14T08:10:34;100658.97;;;-8.80;77.59
61205;BME280;47068;55.780;37.520;2023-12-14T08:13:00;100652.84;;;-8.74;78.47
61205;BME280;47068;55.780;37.520;2023-12-14T08:15:25;100665.59;;;-8.63;78.45
61205;BME280;47068;55.780;37.520;2023-12-14T08:17:50;100650.81;;;-8.51;78.96
61205;BME280;47068;55.780;37.520;2023-12-14T08:20:16;100650.94;;;-8.60;78.31
61205;BME280;47068;55.780;37.520;2023-12-14T08:22:41;100654.28;;;-8.52;79.23
61205;BME280;47068;55.780;37.520;2023-12-14T08:25:10;100649.06;;;-8.49;77.98
61205;BME280;47068;55.780;37.520;2023-12-14T08:27:36;100649.13;;;-8.52;78.11
61205;BME280;47068;55.780;37.520;2023-12-14T08:30:01;100640.38;;;-8.43;78.13
61205;BME280;47068;55.780;37.520;2023-12-14T08:32:26;100657.28;;;-8.24;77.60
61205;BME280;47068;55.780;37.520;2023-12-14T08:34:52;100643.72;;;-8.37;77.06
61205;BME280;47068;55.780;37.520;2023-12-14T08:37:18;100657.53;;;-8.39;77.28
61205;BME280;47068;55.780;37.520;2023-12-14T08:39:43;100659.97;;;-8.30;78.32
61205;BME280;47068;55.780;37.520;2023-12-14T08:42:08;100662.53;;;-8.30;77.28
61205;BME280;47068;55.780;37.520;2023-12-14T08:44:38;100656.41;;;-8.23;77.74
61205;BME280;47068;55.780;37.520;2023-12-14T08:47:03;100658.09;;;-8.22;77.17
61205;BME280;47068;55.780;37.520;2023-12-14T08:49:29;100656.44;;;-8.27;76.25
61205;BME280;47068;55.780;37.520;2023-12-14T08:51:54;100653.03;;;-8.28;76.90
61205;BME280;47068;55.780;37.520;2023-12-14T08:54:20;100648.81;;;-8.32;76.69
61205;BME280;47068;55.780;37.520;2023-12-14T08:56:45;100644.81;;;-8.51;77.44
61205;BME280;47068;55.780;37.520;2023-12-14T08:59:10;100649.13;;;-8.52;78.66
61205;BME280;47068;55.780;37.520;2023-12-14T09:01:36;100650.75;;;-8.48;77.92
61205;BME280;47068;55.780;37.520;2023-12-14T09:04:01;100642.16;;;-8.47;77.06
61205;BME280;47068;55.780;37.520;2023-12-14T09:06:26;100642.13;;;-8.44;76.53
61205;BME280;47068;55.780;37.520;2023-12-14T09:08:52;100635.28;;;-8.48;76.13
61205;BME280;47068;55.780;37.520;2023-12-14T09:11:17;100624.97;;;-8.48;76.23
61205;BME280;47068;55.780;37.520;2023-12-14T09:13:42;100618.06;;;-8.46;75.97
61205;BME280;47068;55.780;37.520;2023-12-14T09:16:08;100621.47;;;-8.44;76.74
61205;BME280;47068;55.780;37.520;2023-12-14T09:18:33;100615.50;;;-8.47;76.05
61205;BME280;47068;55.780;37.520;2023-12-14T09:20:59;100621.53;;;-8.50;76.18
61205;BME280;47068;55.780;37.520;2023-12-14T09:23:25;100618.97;;;-8.50;76.35
61205;BME280;47068;55.780;37.520;2023-12-14T09:25:50;100618.94;;;-8.47;76.48
61205;BME280;47068;55.780;37.520;2023-12-14T09:28:16;100620.44;;;-8.32;77.05
61205;BME280;47068;55.780;37.520;2023-12-14T09:30:41;100627.88;;;-8.15;77.56
61205;BME280;47068;55.780;37.520;2023-12-14T09:33:06;100633.00;;;-8.12;77.12
61205;BME280;47068;55.780;37.520;2023-12-14T09:35:33;100635.53;;;-8.09;76.71
61205;BME280;47068;55.780;37.520;2023-12-14T09:38:00;100642.47;;;-8.14;77.27
61205;BME280;47068;55.780;37.520;2023-12-14T09:40:26;100649.34;;;-8.12;75.86
61205;BME280;47068;55.780;37.520;2023-12-14T09:42:51;100651.84;;;-8.07;76.73
61205;BME280;47068;55.780;37.520;2023-12-14T09:45:17;100657.00;;;-8.07;76.14
61205;BME280;47068;55.780;37.520;2023-12-14T09:47:45;100642.53;;;-8.17;75.02
61205;BME280;47068;55.780;37.520;2023-12-14T09:50:11;100645.22;;;-8.23;75.77
61205;BME280;47068;55.780;37.520;2023-12-14T09:52:37;100653.88;;;-8.27;73.60
61205;BME280;47068;55.780;37.520;2023-12-14T09:55:02;100648.03;;;-8.37;74.38
61205;BME280;47068;55.780;37.520;2023-12-14T09:57:29;100647.09;;;-8.31;75.59
61205;BME280;47068;55.780;37.520;2023-12-14T09:59:54;100649.53;;;-8.24;76.49
61205;BME280;47068;55.780;37.520;2023-12-14T10:02:20;100651.28;;;-8.26;75.89
61205;BME280;47068;55.780;37.520;2023-12-14T10:04:49;100653.69;;;-8.15;76.97
61205;BME280;47068;55.780;37.520;2023-12-14T10:07:15;100654.63;;;-8.19;76.21
61205;BME280;47068;55.780;37.520;2023-12-14T10:09:41;100652.81;;;-8.16;75.85
61205;BME280;47068;55.780;37.520;2023-12-14T10:12:08;100660.38;;;-8.02;76.66
61205;BME280;47068;55.780;37.520;2023-12-14T10:14:34;100644.78;;;-7.96;74.33
61205;BME280;47068;55.780;37.520;2023-12-14T10:17:13;100643.97;;;-8.01;73.98
61205;BME280;47068;55.780;37.520;2023-12-14T10:19:41;100635.44;;;-8.05;73.59
61205;BME280;47068;55.780;37.520;2023-12-14T10:22:07;100642.44;;;-8.11;74.78
61205;BME280;47068;55.780;37.520;2023-12-14T10:24:33;100633.78;;;-8.09;72.42
61205;BME280;47068;55.780;37.520;2023-12-14T10:26:59;100625.38;;;-8.20;72.27
61205;BME280;47068;55.780;37.520;2023-12-14T10:29:24;100629.81;;;-8.29;74.36
61205;BME280;47068;55.780;37.520;2023-12-14T10:31:49;100634.91;;;-8.23;74.97
61205;BME280;47068;55.780;37.520;2023-12-14T10:34:15;100639.88;;;-8.11;76.08
61205;BME280;47068;55.780;37.520;2023-12-14T10:36:40;100633.88;;;-8.15;73.52
61205;BME280;47068;55.780;37.520;2023-12-14T10:39:08;100635.69;;;-8.20;73.05
61205;BME280;47068;55.780;37.520;2023-12-14T10:41:35;100629.78;;;-8.26;72.85
61205;BME280;47068;55.780;37.520;2023-12-14T10:44:01;100621.13;;;-8.24;73.92
61205;BME280;47068;55.780;37.520;2023-12-14T10:46:27;100613.56;;;-8.33;75.00
61205;BME280;47068;55.780;37.520;2023-12-14T10:48:52;100610.13;;;-8.35;74.33
61205;BME280;47068;55.780;37.520;2023-12-14T10:51:18;100596.34;;;-8.32;74.91
61205;BME280;47068;55.780;37.520;2023-12-14T10:53:45;100604.00;;;-8.29;76.17
61205;BME280;47068;55.780;37.520;2023-12-14T10:56:14;100595.19;;;-8.16;76.15
61205;BME280;47068;55.780;37.520;2023-12-14T11:01:16;100591.47;;;-8.00;74.36
61205;BME280;47068;55.780;37.520;2023-12-14T11:03:43;100582.81;;;-7.96;74.41
61205;BME280;47068;55.780;37.520;2023-12-14T11:06:31;100585.44;;;-7.99;75.11
61205;BME280;47068;55.780;37.520;2023-12-14T11:08:58;100578.50;;;-7.97;74.87
61205;BME280;47068;55.780;37.520;2023-12-14T11:11:27;100578.41;;;-7.91;73.26
61205;BME280;47068;55.780;37.520;2023-12-14T11:13:53;100572.59;;;-8.04;73.30
61205;BME280;47068;55.780;37.520;2023-12-14T11:16:25;100582.97;;;-8.07;75.11
61205;BME280;47068;55.780;37.520;2023-12-14T11:21:35;100567.34;;;-7.99;73.95
61205;BME280;47068;55.780;37.520;2023-12-14T11:24:00;100581.03;;;-7.94;74.67
61205;BME280;47068;55.780;37.520;2023-12-14T11:26:26;100589.63;;;-7.93;74.95
61205;BME280;47068;55.780;37.520;2023-12-14T11:28:53;100575.72;;;-7.86;76.53
61205;BME280;47068;55.780;37.520;2023-12-14T11:31:19;100573.88;;;-7.80;76.56
61205;BME280;47068;55.780;37.520;2023-12-14T11:33:45;100583.44;;;-7.83;76.58
61205;BME280;47068;55.780;37.520;2023-12-14T11:36:12;100574.09;;;-7.92;74.28
61205;BME280;47068;55.780;37.520;2023-12-14T11:38:38;100575.97;;;-8.00;73.88
61205;BME280;47068;55.780;37.520;2023-12-14T11:41:03;100580.47;;;-8.10;73.77
61205;BME280;47068;55.780;37.520;2023-12-14T11:43:28;100577.91;;;-8.11;74.65
61205;BME280;47068;55.780;37.520;2023-12-14T11:45:54;100572.75;;;-8.11;74.61
61205;BME280;47068;55.780;37.520;2023-12-14T11:48:20;100575.28;;;-8.10;74.62
61205;BME280;47068;55.780;37.520;2023-12-14T11:50:46;100578.84;;;-8.17;74.72
61205;BME280;47068;55.780;37.520;2023-12-14T11:53:12;100582.31;;;-8.18;75.65
61205;BME280;47068;55.780;37.520;2023-12-14T11:55:39;100583.84;;;-8.08;74.69
61205;BME280;47068;55.780;37.520;2023-12-14T11:58:04;100582.13;;;-8.07;74.80
61205;BME280;47068;55.780;37.520;2023-12-14T12:00:30;100592.34;;;-8.01;74.97
61205;BME280;47068;55.780;37.520;2023-12-14T12:03:15;100600.81;;;-7.93;75.85
61205;BME280;47068;55.780;37.520;2023-12-14T12:05:43;100602.56;;;-7.95;75.11
61205;BME280;47068;55.780;37.520;2023-12-14T12:08:09;100595.00;;;-8.04;73.45
61205;BME280;47068;55.780;37.520;2023-12-14T12:10:34;100606.19;;;-8.05;75.46
61205;BME280;47068;55.780;37.520;2023-12-14T12:13:04;100596.75;;;-8.06;75.25
61205;BME280;47068;55.780;37.520;2023-12-14T12:15:30;100592.53;;;-8.12;74.43
61205;BME280;47068;55.780;37.520;2023-12-14T12:17:57;100605.53;;;-8.16;75.87
61205;BME280;47068;55.780;37.520;2023-12-14T12:20:22;100593.53;;;-8.22;75.94
61205;BME280;47068;55.780;37.520;2023-12-14T12:22:47;100600.38;;;-8.16;76.33
61205;BME280;47068;55.780;37.520;2023-12-14T12:25:13;100595.88;;;-8.07;75.51
61205;BME280;47068;55.780;37.520;2023-12-14T12:27:38;100596.09;;;-8.19;75.34
61205;BME280;47068;55.780;37.520;2023-12-14T12:30:03;100594.38;;;-8.20;76.50
61205;BME280;47068;55.780;37.520;2023-12-14T12:32:29;100603.75;;;-8.14;76.07
61205;BME280;47068;55.780;37.520;2023-12-14T12:34:54;100593.50;;;-8.17;75.12
61205;BME280;47068;55.780;37.520;2023-12-14T12:37:20;100587.50;;;-8.19;74.42